createdAt,value
2022-12-13T00:01:57.043Z,98773.22
2022-12-13T00:04:25.130Z,98771.91
2022-12-13T00:06:54.069Z,98770.91
2022-12-13T00:09:22.212Z,98773.00
2022-12-13T00:11:50.108Z,98781.06
2022-12-13T00:14:17.980Z,98780.91
2022-12-13T00:16:48.326Z,98783.66
2022-12-13T00:19:18.148Z,98779.72
2022-12-13T00:21:45.962Z,98778.78
2022-12-13T00:24:13.681Z,98781.94
2022-12-13T00:26:40.828Z,98775.75
2022-12-13T00:29:09.525Z,98782.81
2022-12-13T00:31:58.732Z,98782.81
2022-12-13T00:34:25.247Z,98788.88
2022-12-13T00:36:55.003Z,98795.91
2022-12-13T00:39:22.368Z,98789.97
2022-12-13T00:41:49.426Z,98790.25
2022-12-13T00:44:17.037Z,98790.56
2022-12-13T00:46:44.052Z,98800.09
2022-12-13T00:49:13.223Z,98804.34
2022-12-13T00:51:40.397Z,98808.63
2022-12-13T00:54:08.056Z,98809.91
2022-12-13T00:56:37.700Z,98809.91
2022-12-13T00:59:05.201Z,98809.91
2022-12-13T01:01:36.521Z,98802.69
2022-12-13T01:04:06.465Z,98805.66
2022-12-13T01:06:41.125Z,98812.72
2022-12-13T01:09:20.072Z,98805.00
2022-12-13T01:11:49.167Z,98817.66
2022-12-13T01:14:18.538Z,98817.66
2022-12-13T01:16:46.231Z,98812.22
2022-12-13T01:19:13.483Z,98808.44
2022-12-13T01:21:40.583Z,98813.19
2022-12-13T01:24:08.375Z,98807.13
2022-12-13T01:26:35.403Z,98802.34
2022-12-13T01:29:05.257Z,98806.94
2022-12-13T01:31:32.785Z,98810.88
2022-12-13T01:34:00.128Z,98812.22
2022-12-13T01:36:28.488Z,98811.56
2022-12-13T01:38:58.005Z,98810.63
2022-12-13T01:41:28.550Z,98813.56
2022-12-13T01:44:03.849Z,98820.63
2022-12-13T01:46:34.300Z,98815.22
2022-12-13T01:49:20.308Z,98815.88
2022-12-13T01:51:56.244Z,98807.19
2022-12-13T01:54:34.067Z,98811.47
2022-12-13T01:57:06.619Z,98825.28
2022-12-13T01:59:39.473Z,98821.53
2022-12-13T02:02:09.946Z,98817.25
2022-12-13T02:04:55.338Z,98825.44
2022-12-13T02:07:29.834Z,98827.75
2022-12-13T02:10:02.342Z,98824.81
2022-12-13T02:12:34.318Z,98833.00
2022-12-13T02:15:11.597Z,98831.72
2022-12-13T02:18:12.458Z,98831.38
2022-12-13T02:21:21.058Z,98830.72
2022-12-13T02:24:26.940Z,98828.91
2022-12-13T02:27:16.019Z,98832.88
2022-12-13T02:30:12.847Z,98836.31
2022-12-13T02:33:21.839Z,98838.28
2022-12-13T02:36:36.345Z,98839.91
2022-12-13T02:39:34.198Z,98832.72
2022-12-13T02:42:21.571Z,98834.66
2022-12-13T02:45:08.566Z,98834.66
2022-12-13T02:47:39.461Z,98841.56
2022-12-13T02:50:09.392Z,98839.59
2022-12-13T02:52:39.283Z,98840.59
2022-12-13T02:55:09.560Z,98844.69
2022-12-13T02:57:43.324Z,98847.31
2022-12-13T03:00:25.146Z,98852.72
2022-12-13T03:03:21.042Z,98854.06
2022-12-13T03:06:34.005Z,98853.22
2022-12-13T03:09:35.844Z,98852.06
2022-12-13T03:12:43.983Z,98850.78
2022-12-13T03:15:29.431Z,98850.09
2022-12-13T03:18:06.517Z,98854.06
2022-12-13T03:20:33.981Z,98853.03
2022-12-13T03:23:03.390Z,98854.06
2022-12-13T03:25:32.906Z,98857.00
2022-12-13T03:28:02.868Z,98857.50
2022-12-13T03:30:34.498Z,98859.47
2022-12-13T03:33:03.887Z,98868.81
2022-12-13T03:35:35.085Z,98870.13
2022-12-13T03:38:21.431Z,98864.53
2022-12-13T03:41:02.727Z,98876.34
2022-12-13T03:43:30.995Z,98872.75
2022-12-13T03:45:58.055Z,98883.06
2022-12-13T03:48:25.501Z,98884.53
2022-12-13T03:50:54.436Z,98884.22
2022-12-13T03:53:33.521Z,98876.03
2022-12-13T03:56:06.012Z,98876.34
2022-12-13T03:58:37.757Z,98883.91
2022-12-13T04:01:15.343Z,98880.13
2022-12-13T04:03:47.062Z,98878.97
2022-12-13T04:06:22.808Z,98880.25
2022-12-13T04:08:52.410Z,98885.50
2022-12-13T04:11:43.038Z,98883.91
2022-12-13T04:14:12.147Z,98893.25
2022-12-13T04:16:39.514Z,98886.16
2022-12-13T04:19:07.538Z,98888.78
2022-12-13T04:21:35.087Z,98891.59
2022-12-13T04:24:03.045Z,98889.16
2022-12-13T04:26:30.340Z,98894.41
2022-12-13T04:28:57.628Z,98892.41
2022-12-13T04:31:24.914Z,98896.53
2022-12-13T04:33:52.291Z,98899.28
2022-12-13T04:36:31.474Z,98900.44
2022-12-13T04:39:03.588Z,98892.41
2022-12-13T04:41:51.943Z,98895.19
2022-12-13T04:44:28.672Z,98892.09
2022-12-13T04:47:00.754Z,98896.03
2022-12-13T04:49:30.950Z,98903.56
2022-12-13T04:52:01.396Z,98892.25
2022-12-13T04:54:36.000Z,98888.81
2022-12-13T04:57:11.201Z,98897.50
2022-12-13T04:59:39.177Z,98900.63
2022-12-13T05:02:08.032Z,98893.25
2022-12-13T05:04:35.848Z,98895.69
2022-12-13T05:07:04.121Z,98904.22
2022-12-13T05:09:31.671Z,98902.59
2022-12-13T05:12:01.050Z,98904.53
2022-12-13T05:14:33.033Z,98900.63
2022-12-13T05:17:02.397Z,98910.75
2022-12-13T05:19:31.551Z,98903.56
2022-12-13T05:22:01.315Z,98901.91
2022-12-13T05:24:31.388Z,98908.81
2022-12-13T05:26:59.731Z,98908.81
2022-12-13T05:29:27.833Z,98906.84
2022-12-13T05:31:55.451Z,98916.84
2022-12-13T05:34:23.047Z,98905.19
2022-12-13T05:36:49.985Z,98912.41
2022-12-13T05:39:27.919Z,98914.41
2022-12-13T05:42:01.776Z,98908.63
2022-12-13T05:44:33.795Z,98909.16
2022-12-13T05:47:01.976Z,98916.00
2022-12-13T05:49:30.221Z,98911.13
2022-12-13T05:51:57.434Z,98912.09
2022-12-13T05:54:24.753Z,98912.09
2022-12-13T05:56:52.000Z,98913.41
2022-12-13T05:59:19.492Z,98919.50
2022-12-13T06:01:46.466Z,98916.19
2022-12-13T06:04:22.564Z,98920.66
2022-12-13T06:06:52.497Z,98918.34
2022-12-13T06:09:21.015Z,98922.28
2022-12-13T06:11:49.731Z,98920.47
2022-12-13T06:14:22.612Z,98917.34
2022-12-13T06:16:52.705Z,98934.41
2022-12-13T06:19:24.098Z,98928.81
2022-12-13T06:21:53.845Z,98934.06
2022-12-13T06:24:23.719Z,98939.66
2022-12-13T06:26:51.829Z,98945.56
2022-12-13T06:29:24.088Z,98947.03
2022-12-13T06:32:03.110Z,98952.75
2022-12-13T06:34:36.491Z,98947.16
2022-12-13T06:37:07.736Z,98946.53
2022-12-13T06:39:35.341Z,98942.91
2022-12-13T06:42:08.950Z,98951.44
2022-12-13T06:44:36.532Z,98956.69
2022-12-13T06:47:10.707Z,98954.25
2022-12-13T06:49:43.351Z,98961.13
2022-12-13T06:52:13.370Z,98959.16
2022-12-13T06:54:42.780Z,98959.16
2022-12-13T06:57:12.113Z,98967.22
2022-12-13T06:59:40.185Z,98969.19
2022-12-13T07:02:15.309Z,98970.81
2022-12-13T07:04:54.025Z,98966.88
2022-12-13T07:07:21.928Z,98970.97
2022-12-13T07:09:49.239Z,98976.88
2022-12-13T07:12:16.260Z,98981.31
2022-12-13T07:14:43.667Z,98985.09
2022-12-13T07:17:10.828Z,98988.56
2022-12-13T07:19:38.733Z,98985.91
2022-12-13T07:22:06.362Z,98997.72
2022-12-13T07:24:37.086Z,99008.25
2022-12-13T07:27:04.980Z,98992.47
2022-12-13T07:29:32.384Z,98998.09
2022-12-13T07:32:01.794Z,99002.66
2022-12-13T07:34:30.541Z,98996.94
2022-12-13T07:36:57.999Z,98999.06
2022-12-13T07:39:26.231Z,99005.97
2022-12-13T07:41:56.013Z,99001.19
2022-12-13T07:44:24.848Z,99009.25
2022-12-13T07:46:52.146Z,99004.31
2022-12-13T07:49:20.027Z,98999.38
2022-12-13T07:51:47.787Z,99002.00
2022-12-13T07:54:15.319Z,98993.34
2022-12-13T07:56:42.351Z,98995.78
2022-12-13T07:59:10.783Z,98997.75
2022-12-13T08:01:38.036Z,99003.00
2022-12-13T08:04:06.718Z,99002.69
2022-12-13T08:06:38.900Z,99003.66
2022-12-13T08:09:06.818Z,99008.09
2022-12-13T08:11:34.465Z,99004.63
2022-12-13T08:14:03.273Z,99008.28
2022-12-13T08:16:30.729Z,99008.91
2022-12-13T08:19:02.425Z,99018.78
2022-12-13T08:22:01.796Z,99016.31
2022-12-13T08:24:31.262Z,99016.47
2022-12-13T08:27:03.002Z,99013.84
2022-12-13T08:29:35.129Z,99020.25
2022-12-13T08:32:11.460Z,99022.53
2022-12-13T08:34:41.346Z,99026.66
2022-12-13T08:37:08.541Z,99029.78
2022-12-13T08:39:38.262Z,99032.41
2022-12-13T08:42:16.782Z,99026.31
2022-12-13T08:44:51.485Z,99031.59
2022-12-13T08:47:26.868Z,99033.06
2022-12-13T08:50:04.046Z,99025.50
2022-12-13T08:52:40.765Z,99031.91
2022-12-13T08:55:13.099Z,99028.78
2022-12-13T08:57:42.487Z,99028.28
2022-12-13T09:00:15.202Z,99038.78
2022-12-13T09:02:43.453Z,99029.28
2022-12-13T09:05:33.104Z,99030.75
2022-12-13T09:08:24.842Z,99033.22
2022-12-13T09:11:00.388Z,99028.94
2022-12-13T09:13:34.473Z,99031.25
2022-12-13T09:16:23.071Z,99033.88
2022-12-13T09:18:55.857Z,99041.09
2022-12-13T09:21:31.603Z,99031.09
2022-12-13T09:24:01.409Z,99030.44
2022-12-13T09:26:29.899Z,99035.81
2022-12-13T09:29:10.327Z,99030.91
2022-12-13T09:31:40.492Z,99030.91
2022-12-13T09:34:09.079Z,99041.06
2022-12-13T09:36:36.616Z,99035.19
2022-12-13T09:39:04.990Z,99041.06
2022-12-13T09:41:41.838Z,99040.44
2022-12-13T09:44:44.054Z,99047.34
2022-12-13T09:47:27.275Z,99038.78
2022-12-13T09:50:15.993Z,99030.56
2022-12-13T09:52:46.063Z,99039.09
2022-12-13T09:55:30.820Z,99044.03
2022-12-13T09:58:14.264Z,99052.25
2022-12-13T10:00:42.086Z,99040.75
2022-12-13T10:03:15.807Z,99033.34
2022-12-13T10:06:23.223Z,99039.41
2022-12-13T10:08:58.884Z,99039.75
2022-12-13T10:11:31.763Z,99043.72
2022-12-13T10:14:47.792Z,99038.47
2022-12-13T10:17:22.405Z,99038.28
2022-12-13T10:19:53.136Z,99036.13
2022-12-13T10:22:24.966Z,99038.91
2022-12-13T10:24:56.690Z,99031.84
2022-12-13T10:27:45.868Z,99027.59
2022-12-13T10:30:28.990Z,99016.91
2022-12-13T10:33:03.658Z,99012.47
2022-12-13T10:35:36.289Z,99017.09
2022-12-13T10:38:31.918Z,99019.53
2022-12-13T10:43:27.728Z,99018.41
2022-12-13T10:46:01.085Z,99025.28
2022-12-13T10:48:48.998Z,99024.63
2022-12-13T10:51:22.887Z,99016.41
2022-12-13T10:54:00.759Z,99023.13
2022-12-13T10:56:47.629Z,99016.91
2022-12-13T10:59:34.699Z,99020.38
2022-12-13T11:02:34.818Z,99028.25
2022-12-13T11:05:29.688Z,99025.63
2022-12-13T11:08:26.469Z,99022.72
2022-12-13T11:11:05.873Z,99011.88
2022-12-13T11:13:46.120Z,99011.41
2022-12-13T11:16:33.901Z,99015.31
2022-12-13T11:20:08.346Z,99006.97
2022-12-13T11:34:48.435Z,99006.63
2022-12-13T11:41:59.081Z,98999.09
2022-12-13T11:45:22.505Z,98995.31
2022-12-13T11:48:09.312Z,98997.75
2022-12-13T11:50:48.632Z,99005.16
2022-12-13T11:53:23.120Z,99002.03
2022-12-13T11:56:19.826Z,99003.69
2022-12-13T11:59:40.328Z,99003.69
2022-12-13T12:02:33.661Z,99006.13
2022-12-13T12:05:24.076Z,99006.47
2022-12-13T12:08:32.489Z,99009.41
2022-12-13T12:11:09.378Z,99006.63
2022-12-13T12:13:57.114Z,99011.88
2022-12-13T12:16:43.273Z,99003.00
2022-12-13T12:19:21.812Z,99004.63
2022-12-13T12:22:19.991Z,99008.09
2022-12-13T12:25:37.566Z,99005.00
2022-12-13T12:29:12.233Z,99002.03
2022-12-13T12:32:24.230Z,99004.97
2022-12-13T12:35:19.616Z,99014.19
2022-12-13T12:38:27.479Z,99015.50
2022-12-13T12:41:47.360Z,99010.41
2022-12-13T12:44:52.336Z,99009.09
2022-12-13T12:48:46.259Z,99009.91
2022-12-13T12:51:02.545Z,99014.81
2022-12-13T12:53:51.007Z,99010.41
2022-12-13T12:56:57.635Z,99016.16
2022-12-13T12:59:48.177Z,99013.34
2022-12-13T13:02:51.253Z,99020.41
2022-12-13T13:05:31.700Z,99022.72
2022-12-13T13:08:19.964Z,99020.91
2022-12-13T13:10:50.207Z,99012.84
2022-12-13T13:13:46.669Z,99017.47
2022-12-13T13:16:34.213Z,99018.44
2022-12-13T13:19:26.200Z,99021.41
2022-12-13T13:22:01.423Z,99020.91
2022-12-13T13:24:34.679Z,99021.72
2022-12-13T13:27:11.973Z,99028.94
2022-12-13T13:29:43.923Z,99022.72
2022-12-13T13:32:11.597Z,99023.38
2022-12-13T13:34:43.476Z,99026.66
2022-12-13T13:37:25.690Z,99026.97
2022-12-13T13:39:55.665Z,99029.94
2022-12-13T13:42:33.545Z,99026.00
2022-12-13T13:45:26.995Z,99027.47
2022-12-13T13:48:26.862Z,99032.25
2022-12-13T13:51:32.977Z,99028.59
2022-12-13T13:54:25.011Z,99032.88
2022-12-13T13:58:07.171Z,99028.28
2022-12-13T14:00:40.620Z,99036.81
2022-12-13T14:03:34.145Z,99037.50
2022-12-13T14:06:29.663Z,99038.16
2022-12-13T14:09:32.842Z,99043.22
2022-12-13T14:13:02.354Z,99046.34
2022-12-13T14:16:20.836Z,99041.91
2022-12-13T14:19:45.889Z,99045.22
2022-12-13T14:22:24.383Z,99052.59
2022-12-13T14:25:16.417Z,99051.59
2022-12-13T14:28:15.047Z,99057.53
2022-12-13T14:30:47.930Z,99066.88
2022-12-13T14:33:26.880Z,99067.69
2022-12-13T14:35:58.997Z,99057.16
2022-12-13T14:38:32.039Z,99059.66
2022-12-13T14:41:03.010Z,99056.00
2022-12-13T14:43:33.768Z,99058.50
2022-12-13T14:46:08.045Z,99062.75
2022-12-13T14:48:44.280Z,99063.41
2022-12-13T14:51:35.789Z,99062.41
2022-12-13T14:54:06.884Z,99061.44
2022-12-13T14:56:34.820Z,99056.84
2022-12-13T14:59:12.880Z,99057.66
2022-12-13T15:01:41.016Z,99061.09
2022-12-13T15:04:31.725Z,99073.25
2022-12-13T15:07:11.514Z,99064.41
2022-12-13T15:09:43.683Z,99066.84
2022-12-13T15:12:25.215Z,99065.69
2022-12-13T15:15:34.326Z,99076.22
2022-12-13T15:18:20.480Z,99073.41
2022-12-13T15:20:57.834Z,99072.59
2022-12-13T15:23:48.590Z,99074.22
2022-12-13T15:26:28.337Z,99075.88
2022-12-13T15:29:01.516Z,99084.41
2022-12-13T15:31:39.016Z,99080.13
2022-12-13T15:34:28.275Z,99088.69
2022-12-13T15:37:28.536Z,99079.16
2022-12-13T15:40:08.540Z,99087.69
2022-12-13T15:42:43.582Z,99089.69
2022-12-13T15:45:25.334Z,99092.13
2022-12-13T15:47:54.779Z,99092.13
2022-12-13T15:50:45.494Z,99089.69
2022-12-13T15:53:27.955Z,99091.00
2022-12-13T15:55:55.599Z,99091.66
2022-12-13T15:58:33.385Z,99085.25
2022-12-13T16:01:05.315Z,99087.56
2022-12-13T16:03:46.678Z,99092.66
2022-12-13T16:06:23.393Z,99098.56
2022-12-13T16:08:53.333Z,99101.38
2022-12-13T16:11:31.348Z,99089.69
2022-12-13T16:14:32.957Z,99094.44
2022-12-13T16:17:34.808Z,99084.78
2022-12-13T16:20:09.319Z,99087.06
2022-12-13T16:22:37.060Z,99087.72
2022-12-13T16:25:04.547Z,99084.78
2022-12-13T16:27:32.091Z,99088.88
2022-12-13T16:29:59.375Z,99089.72
2022-12-13T16:32:27.053Z,99090.84
2022-12-13T16:34:54.157Z,99093.81
2022-12-13T16:37:27.400Z,99096.78
2022-12-13T16:39:55.820Z,99105.47
2022-12-13T16:42:26.906Z,99106.78
2022-12-13T16:45:17.835Z,99104.81
2022-12-13T16:47:49.198Z,99102.34
2022-12-13T16:50:20.705Z,99108.41
2022-12-13T16:52:49.222Z,99102.50
2022-12-13T16:55:16.543Z,99102.00
2022-12-13T16:58:00.531Z,99107.44
2022-12-13T17:00:29.505Z,99105.47
2022-12-13T17:02:59.329Z,99094.28
2022-12-13T17:05:30.219Z,99097.44
2022-12-13T17:07:57.593Z,99107.13
2022-12-13T17:10:24.811Z,99098.41
2022-12-13T17:12:54.011Z,99107.75
2022-12-13T17:15:21.133Z,99103.34
2022-12-13T17:17:48.566Z,99107.59
2022-12-13T17:20:18.002Z,99113.53
2022-12-13T17:22:46.683Z,99110.72
2022-12-13T17:25:14.661Z,99110.91
2022-12-13T17:27:42.573Z,99115.00
2022-12-13T17:30:15.828Z,99124.50
2022-12-13T17:32:44.376Z,99129.44
2022-12-13T17:35:17.681Z,99126.63
2022-12-13T17:37:46.196Z,99129.13
2022-12-13T17:40:13.132Z,99129.91
2022-12-13T17:42:40.408Z,99119.41
2022-12-13T17:45:08.047Z,99130.75
2022-12-13T17:47:35.440Z,99130.75
2022-12-13T17:50:02.570Z,99133.22
2022-12-13T17:52:30.460Z,99134.03
2022-12-13T17:54:57.698Z,99134.03
2022-12-13T17:57:24.986Z,99148.19
2022-12-13T17:59:52.124Z,99142.91
2022-12-13T18:02:22.916Z,99148.50
2022-12-13T18:04:50.435Z,99148.81
2022-12-13T18:07:18.851Z,99149.97
2022-12-13T18:09:46.008Z,99147.53
2022-12-13T18:12:13.716Z,99151.81
2022-12-13T18:14:41.232Z,99154.09
2022-12-13T18:17:08.489Z,99164.94
2022-12-13T18:19:35.451Z,99155.06
2022-12-13T18:22:02.881Z,99166.25
2022-12-13T18:24:30.099Z,99166.09
2022-12-13T18:26:57.362Z,99165.13
2022-12-13T18:29:24.376Z,99158.84
2022-12-13T18:31:54.823Z,99160.66
2022-12-13T18:34:21.958Z,99168.53
2022-12-13T18:36:49.476Z,99166.91
2022-12-13T18:39:17.203Z,99164.94
2022-12-13T18:41:44.542Z,99162.63
2022-12-13T18:44:13.731Z,99171.50
2022-12-13T18:46:45.760Z,99164.59
2022-12-13T18:49:13.245Z,99169.88
2022-12-13T18:51:40.580Z,99163.78
2022-12-13T18:54:07.768Z,99167.06
2022-12-13T18:56:35.059Z,99163.47
2022-12-13T18:59:02.306Z,99158.19
2022-12-13T19:01:30.534Z,99159.00
2022-12-13T19:03:57.926Z,99155.38
2022-12-13T19:06:27.989Z,99152.09
2022-12-13T19:08:58.322Z,99153.72
2022-12-13T19:11:27.940Z,99152.94
2022-12-13T19:13:55.660Z,99146.84
2022-12-13T19:16:24.486Z,99151.09
2022-12-13T19:18:51.531Z,99152.09
2022-12-13T19:21:21.824Z,99146.84
2022-12-13T19:23:56.409Z,99155.38
2022-12-13T19:26:28.040Z,99144.88
2022-12-13T19:28:57.659Z,99144.88
2022-12-13T19:31:31.036Z,99149.16
2022-12-13T19:34:03.607Z,99142.06
2022-12-13T19:36:32.076Z,99147.16
2022-12-13T19:38:59.641Z,99156.69
2022-12-13T19:41:27.485Z,99154.06
2022-12-13T19:43:54.507Z,99148.00
2022-12-13T19:46:22.164Z,99154.88
2022-12-13T19:48:49.602Z,99154.72
2022-12-13T19:51:17.778Z,99155.53
2022-12-13T19:53:44.874Z,99160.00
2022-12-13T19:56:17.651Z,99156.34
2022-12-13T19:58:46.989Z,99163.28
2022-12-13T20:01:15.810Z,99161.63
2022-12-13T20:03:45.832Z,99161.63
2022-12-13T20:06:17.947Z,99160.66
2022-12-13T20:08:46.366Z,99147.50
2022-12-13T20:11:19.392Z,99159.63
2022-12-13T20:13:49.162Z,99157.00
2022-12-13T20:16:19.528Z,99150.78
2022-12-13T20:18:47.825Z,99154.38
2022-12-13T20:21:15.288Z,99149.13
2022-12-13T20:23:49.440Z,99151.75
2022-12-13T20:26:23.421Z,99142.88
2022-12-13T20:28:51.127Z,99154.22
2022-12-13T20:31:23.052Z,99157.84
2022-12-13T20:33:59.514Z,99153.22
2022-12-13T20:36:29.079Z,99145.31
2022-12-13T20:39:02.328Z,99160.31
2022-12-13T20:41:33.195Z,99161.13
2022-12-13T20:44:03.151Z,99154.22
2022-12-13T20:46:31.059Z,99152.44
2022-12-13T20:49:02.378Z,99151.41
2022-12-13T20:51:31.957Z,99149.78
2022-12-13T20:54:00.353Z,99153.06
2022-12-13T20:56:35.515Z,99152.44
2022-12-13T20:59:05.994Z,99152.44
2022-12-13T21:01:38.423Z,99157.69
2022-12-13T21:04:07.561Z,99161.28
2022-12-13T21:06:37.422Z,99157.84
2022-12-13T21:09:05.631Z,99156.03
2022-12-13T21:11:59.083Z,99155.19
2022-12-13T21:14:29.041Z,99160.47
2022-12-13T21:16:59.789Z,99156.03
2022-12-13T21:19:37.558Z,99162.78
2022-12-13T21:22:07.743Z,99153.22
2022-12-13T21:24:34.739Z,99159.97
2022-12-13T21:27:02.226Z,99148.47
2022-12-13T21:29:29.179Z,99150.25
2022-12-13T21:31:56.952Z,99145.81
2022-12-13T21:34:24.100Z,99153.53
2022-12-13T21:36:52.629Z,99148.47
2022-12-13T21:39:27.985Z,99153.72
2022-12-13T21:41:56.723Z,99152.75
2022-12-13T21:44:24.139Z,99146.66
2022-12-13T21:47:11.823Z,99158.81
2022-12-13T21:49:39.288Z,99158.97
2022-12-13T21:52:06.742Z,99153.72
2022-12-13T21:54:33.769Z,99154.69
2022-12-13T21:57:20.011Z,99154.69
2022-12-13T21:59:47.028Z,99158.97
2022-12-13T22:02:19.995Z,99158.97
2022-12-13T22:04:57.410Z,99158.97
2022-12-13T22:07:28.508Z,99164.25
2022-12-13T22:09:57.093Z,99165.91
2022-12-13T22:12:37.683Z,99159.97
2022-12-13T22:15:12.792Z,99163.59
2022-12-13T22:17:41.877Z,99155.38
2022-12-13T22:20:13.717Z,99158.66
2022-12-13T22:22:44.065Z,99151.75
2022-12-13T22:25:12.077Z,99148.47
2022-12-13T22:27:39.375Z,99152.06
2022-12-13T22:30:07.559Z,99150.13
2022-12-13T22:32:34.843Z,99151.09
2022-12-13T22:35:02.264Z,99158.97
2022-12-13T22:37:29.634Z,99153.72
2022-12-13T22:39:56.915Z,99155.69
2022-12-13T22:42:24.146Z,99150.44
2022-12-13T22:44:51.219Z,99153.72
2022-12-13T22:47:19.440Z,99153.72
2022-12-13T22:49:48.783Z,99142.88
2022-12-13T22:52:17.311Z,99137.59
2022-12-13T22:54:44.471Z,99143.00
2022-12-13T22:57:11.748Z,99142.38
2022-12-13T22:59:39.142Z,99143.38
2022-12-13T23:02:06.614Z,99136.28
2022-12-13T23:04:33.772Z,99140.75
2022-12-13T23:07:01.866Z,99136.47
2022-12-13T23:09:28.925Z,99132.16
2022-12-13T23:12:15.111Z,99138.25
2022-12-13T23:14:42.173Z,99133.00
2022-12-13T23:17:09.628Z,99134.00
2022-12-13T23:19:51.493Z,99133.19
2022-12-13T23:22:25.568Z,99131.38
2022-12-13T23:24:53.547Z,99129.72
2022-12-13T23:27:24.664Z,99125.44
2022-12-13T23:29:52.031Z,99118.38
2022-12-13T23:32:19.335Z,99112.28
2022-12-13T23:34:46.465Z,99113.94
2022-12-13T23:37:13.742Z,99117.53
2022-12-13T23:39:41.466Z,99117.53
2022-12-13T23:42:08.938Z,99113.28
2022-12-13T23:44:36.378Z,99110.66
2022-12-13T23:47:03.733Z,99110.66
2022-12-13T23:49:30.824Z,99109.00
2022-12-13T23:51:58.127Z,99109.00
2022-12-13T23:54:27.165Z,99110.66
2022-12-13T23:56:54.504Z,99113.28
2022-12-13T23:59:21.500Z,99100.47
